MDA191 RCQC-RCSS
Flight info
| Callsign | MDA191 |
|---|---|
| Flight time | 0h 28m |
| Altitude | 11000 |
| Route | SWORD1A SWORD A1 HLG HLG1E |
| Aircraft | E190/M-SDE3GILORVW/S |
Departure
| Time | 2026-04-21 07:24 |
|---|---|
| Airport | Penghu Magong Airport (RCQC) |
Arrival
| Time | 2026-04-21 07:53 |
|---|---|
| Airport | Taipei Songshan International Airport (RCSS) |
| Time | Latitude | Longitude | Altitude | Speed | Heading |
|---|---|---|---|---|---|
| 2026-04-21 07:07 | 23.56150 | 119.62906 | 97 ft | 0 kts | 108° |
| 2026-04-21 07:16 | 23.56156 | 119.62887 | 97 ft | 4 kts | 108° |
| 2026-04-21 07:16 | 23.56165 | 119.62859 | 97 ft | 4 kts | 111° |
| 2026-04-21 07:17 | 23.56178 | 119.62837 | 98 ft | 4 kts | 156° |
| 2026-04-21 07:17 | 23.56197 | 119.62834 | 99 ft | 2 kts | 198° |
| 2026-04-21 07:17 | 23.56221 | 119.62843 | 98 ft | 3 kts | 198° |
| 2026-04-21 07:17 | 23.56224 | 119.62844 | 99 ft | 0 kts | 198° |
| 2026-04-21 07:21 | 23.56195 | 119.62833 | 99 ft | 3 kts | 198° |
| 2026-04-21 07:21 | 23.56144 | 119.62815 | 100 ft | 12 kts | 198° |
| 2026-04-21 07:21 | 23.56041 | 119.62778 | 98 ft | 17 kts | 198° |
| 2026-04-21 07:22 | 23.55898 | 119.62726 | 98 ft | 26 kts | 198° |
| 2026-04-21 07:22 | 23.55732 | 119.62667 | 101 ft | 23 kts | 198° |
| 2026-04-21 07:22 | 23.55583 | 119.62613 | 108 ft | 18 kts | 198° |
| 2026-04-21 07:22 | 23.55540 | 119.62528 | 109 ft | 15 kts | 281° |
| 2026-04-21 07:23 | 23.55593 | 119.62399 | 109 ft | 22 kts | 314° |
| 2026-04-21 07:23 | 23.55764 | 119.62432 | 107 ft | 38 kts | 19° |
| 2026-04-21 07:23 | 23.56315 | 119.62626 | 102 ft | 129 kts | 18° |
| 2026-04-21 07:23 | 23.57387 | 119.63032 | 373 ft | 181 kts | 17° |
| 2026-04-21 07:24 | 23.58569 | 119.63729 | 578 ft | 206 kts | 34° |
| 2026-04-21 07:24 | 23.59644 | 119.64714 | 950 ft | 188 kts | 40° |
| 2026-04-21 07:24 | 23.60649 | 119.65764 | 1359 ft | 222 kts | 42° |
| 2026-04-21 07:24 | 23.61852 | 119.67068 | 1826 ft | 265 kts | 43° |
| 2026-04-21 07:25 | 23.63265 | 119.68632 | 2355 ft | 311 kts | 44° |
| 2026-04-21 07:25 | 23.64821 | 119.70351 | 2870 ft | 323 kts | 44° |
| 2026-04-21 07:25 | 23.66411 | 119.72096 | 3356 ft | 325 kts | 43° |
| 2026-04-21 07:25 | 23.67990 | 119.73834 | 3813 ft | 327 kts | 43° |
| 2026-04-21 07:26 | 23.69604 | 119.75601 | 4268 ft | 330 kts | 43° |
| 2026-04-21 07:26 | 23.71228 | 119.77387 | 4724 ft | 333 kts | 43° |
| 2026-04-21 07:26 | 23.72864 | 119.79187 | 5181 ft | 335 kts | 43° |
| 2026-04-21 07:26 | 23.74509 | 119.80996 | 5622 ft | 337 kts | 43° |
| 2026-04-21 07:27 | 23.76163 | 119.82821 | 6066 ft | 339 kts | 43° |
| 2026-04-21 07:27 | 23.77829 | 119.84651 | 6515 ft | 341 kts | 43° |
| 2026-04-21 07:27 | 23.79504 | 119.86500 | 6963 ft | 343 kts | 43° |
| 2026-04-21 07:27 | 23.81165 | 119.88331 | 7402 ft | 345 kts | 43° |
| 2026-04-21 07:28 | 23.82845 | 119.90219 | 7854 ft | 348 kts | 46° |
| 2026-04-21 07:28 | 23.84515 | 119.92138 | 8301 ft | 349 kts | 42° |
| 2026-04-21 07:28 | 23.86254 | 119.94008 | 8754 ft | 352 kts | 44° |
| 2026-04-21 07:28 | 23.87967 | 119.95931 | 9200 ft | 354 kts | 44° |
| 2026-04-21 07:29 | 23.89695 | 119.97861 | 9649 ft | 357 kts | 44° |
| 2026-04-21 07:29 | 23.91431 | 119.99808 | 10098 ft | 359 kts | 44° |
| 2026-04-21 07:29 | 23.93177 | 120.01768 | 10544 ft | 361 kts | 44° |
| 2026-04-21 07:29 | 23.94936 | 120.03741 | 10892 ft | 364 kts | 44° |
| 2026-04-21 07:30 | 23.96681 | 120.05699 | 10975 ft | 364 kts | 44° |
| 2026-04-21 07:30 | 23.98447 | 120.07682 | 11016 ft | 364 kts | 44° |
| 2026-04-21 07:30 | 24.00213 | 120.09664 | 11031 ft | 364 kts | 44° |
| 2026-04-21 07:30 | 24.01980 | 120.11649 | 11041 ft | 364 kts | 44° |
| 2026-04-21 07:31 | 24.03746 | 120.13635 | 11042 ft | 364 kts | 44° |
| 2026-04-21 07:31 | 24.05513 | 120.15619 | 11038 ft | 364 kts | 44° |
| 2026-04-21 07:31 | 24.07276 | 120.17605 | 11033 ft | 364 kts | 44° |
| 2026-04-21 07:31 | 24.09041 | 120.19590 | 11034 ft | 364 kts | 44° |
| 2026-04-21 07:32 | 24.10782 | 120.21551 | 11041 ft | 364 kts | 44° |
| 2026-04-21 07:32 | 24.12549 | 120.23536 | 11031 ft | 364 kts | 44° |
| 2026-04-21 07:32 | 24.14311 | 120.25526 | 11029 ft | 364 kts | 44° |
| 2026-04-21 07:32 | 24.16075 | 120.27511 | 11042 ft | 364 kts | 44° |
| 2026-04-21 07:33 | 24.17838 | 120.29502 | 11038 ft | 364 kts | 44° |
| 2026-04-21 07:33 | 24.19602 | 120.31491 | 11027 ft | 364 kts | 44° |
| 2026-04-21 07:33 | 24.21366 | 120.33481 | 11038 ft | 364 kts | 44° |
| 2026-04-21 07:33 | 24.23130 | 120.35471 | 11035 ft | 364 kts | 44° |
| 2026-04-21 07:34 | 24.24893 | 120.37463 | 11026 ft | 364 kts | 44° |
| 2026-04-21 07:34 | 24.26631 | 120.39428 | 11034 ft | 364 kts | 44° |
| 2026-04-21 07:34 | 24.28393 | 120.41419 | 11038 ft | 364 kts | 44° |
| 2026-04-21 07:34 | 24.30155 | 120.43413 | 11033 ft | 364 kts | 44° |
| 2026-04-21 07:35 | 24.31917 | 120.45405 | 11031 ft | 364 kts | 44° |
| 2026-04-21 07:35 | 24.33678 | 120.47400 | 11036 ft | 364 kts | 44° |
| 2026-04-21 07:35 | 24.35440 | 120.49392 | 11042 ft | 364 kts | 44° |
| 2026-04-21 07:35 | 24.37202 | 120.51388 | 11030 ft | 364 kts | 44° |
| 2026-04-21 07:36 | 24.38961 | 120.53385 | 11026 ft | 364 kts | 44° |
| 2026-04-21 07:36 | 24.40698 | 120.55351 | 11037 ft | 364 kts | 44° |
| 2026-04-21 07:36 | 24.42457 | 120.57351 | 11042 ft | 364 kts | 44° |
| 2026-04-21 07:36 | 24.44219 | 120.59349 | 11028 ft | 364 kts | 44° |
| 2026-04-21 07:37 | 24.45974 | 120.61342 | 11027 ft | 364 kts | 44° |
| 2026-04-21 07:37 | 24.47737 | 120.63343 | 11038 ft | 364 kts | 44° |
| 2026-04-21 07:37 | 24.49495 | 120.65341 | 11042 ft | 364 kts | 44° |
| 2026-04-21 07:37 | 24.51256 | 120.67342 | 11029 ft | 364 kts | 44° |
| 2026-04-21 07:38 | 24.53015 | 120.69343 | 11055 ft | 364 kts | 44° |
| 2026-04-21 07:38 | 24.54754 | 120.71315 | 11053 ft | 364 kts | 41° |
| 2026-04-21 07:38 | 24.56760 | 120.72996 | 11045 ft | 362 kts | 32° |
| 2026-04-21 07:38 | 24.58861 | 120.74521 | 11037 ft | 363 kts | 31° |
| 2026-04-21 07:39 | 24.60969 | 120.76029 | 11036 ft | 363 kts | 34° |
| 2026-04-21 07:39 | 24.62747 | 120.77998 | 11042 ft | 365 kts | 49° |
| 2026-04-21 07:39 | 24.64302 | 120.80206 | 11063 ft | 365 kts | 52° |
| 2026-04-21 07:39 | 24.65819 | 120.82449 | 11023 ft | 367 kts | 50° |
| 2026-04-21 07:40 | 24.67470 | 120.84577 | 10528 ft | 363 kts | 48° |
| 2026-04-21 07:40 | 24.69070 | 120.86661 | 10068 ft | 359 kts | 48° |
| 2026-04-21 07:40 | 24.70647 | 120.88685 | 9543 ft | 331 kts | 47° |
| 2026-04-21 07:40 | 24.72092 | 120.90523 | 8882 ft | 307 kts | 47° |
| 2026-04-21 07:41 | 24.73454 | 120.92257 | 8181 ft | 292 kts | 47° |
| 2026-04-21 07:41 | 24.74761 | 120.93918 | 7448 ft | 282 kts | 47° |
| 2026-04-21 07:41 | 24.76023 | 120.95523 | 6800 ft | 273 kts | 47° |
| 2026-04-21 07:41 | 24.77237 | 120.97091 | 6109 ft | 266 kts | 47° |
| 2026-04-21 07:42 | 24.78431 | 120.98627 | 5416 ft | 261 kts | 47° |
| 2026-04-21 07:42 | 24.79593 | 121.00109 | 4712 ft | 258 kts | 47° |
| 2026-04-21 07:42 | 24.80756 | 121.01593 | 4051 ft | 254 kts | 47° |
| 2026-04-21 07:42 | 24.81904 | 121.03051 | 3389 ft | 251 kts | 47° |
| 2026-04-21 07:43 | 24.83028 | 121.04502 | 2715 ft | 248 kts | 48° |
| 2026-04-21 07:43 | 24.84142 | 121.05941 | 2213 ft | 241 kts | 47° |
| 2026-04-21 07:43 | 24.85195 | 121.07297 | 2143 ft | 228 kts | 47° |
| 2026-04-21 07:43 | 24.86229 | 121.08605 | 2076 ft | 226 kts | 47° |
| 2026-04-21 07:44 | 24.87255 | 121.09925 | 2073 ft | 226 kts | 48° |
| 2026-04-21 07:44 | 24.88259 | 121.11232 | 2304 ft | 229 kts | 47° |
| 2026-04-21 07:44 | 24.89294 | 121.12560 | 2576 ft | 230 kts | 47° |
| 2026-04-21 07:44 | 24.90334 | 121.13891 | 2849 ft | 232 kts | 47° |
| 2026-04-21 07:45 | 24.91394 | 121.15243 | 3127 ft | 233 kts | 47° |
| 2026-04-21 07:45 | 24.92454 | 121.16604 | 3217 ft | 233 kts | 47° |
| 2026-04-21 07:45 | 24.93509 | 121.17958 | 3272 ft | 232 kts | 47° |
| 2026-04-21 07:45 | 24.94706 | 121.19126 | 3247 ft | 230 kts | 32° |
| 2026-04-21 07:46 | 24.96024 | 121.20119 | 3246 ft | 229 kts | 31° |
| 2026-04-21 07:46 | 24.97367 | 121.21066 | 3253 ft | 229 kts | 30° |
| 2026-04-21 07:46 | 24.98694 | 121.22014 | 3273 ft | 230 kts | 33° |
| 2026-04-21 07:46 | 24.99849 | 121.23242 | 3296 ft | 233 kts | 51° |
| 2026-04-21 07:47 | 25.00796 | 121.24705 | 3186 ft | 236 kts | 54° |
| 2026-04-21 07:47 | 25.01701 | 121.26210 | 2973 ft | 234 kts | 54° |
| 2026-04-21 07:47 | 25.02641 | 121.27669 | 2766 ft | 232 kts | 51° |
| 2026-04-21 07:47 | 25.03638 | 121.29068 | 2550 ft | 231 kts | 50° |
| 2026-04-21 07:48 | 25.04634 | 121.30458 | 2337 ft | 231 kts | 50° |
| 2026-04-21 07:48 | 25.05621 | 121.31841 | 2137 ft | 228 kts | 50° |
| 2026-04-21 07:48 | 25.06505 | 121.33235 | 2103 ft | 224 kts | 61° |
| 2026-04-21 07:48 | 25.07077 | 121.34809 | 2109 ft | 214 kts | 73° |
| 2026-04-21 07:49 | 25.07384 | 121.36348 | 2102 ft | 198 kts | 80° |
| 2026-04-21 07:49 | 25.07524 | 121.37833 | 2080 ft | 187 kts | 89° |
| 2026-04-21 07:49 | 25.07515 | 121.39224 | 2051 ft | 177 kts | 92° |
| 2026-04-21 07:49 | 25.07472 | 121.40581 | 2055 ft | 179 kts | 93° |
| 2026-04-21 07:50 | 25.07388 | 121.41940 | 2040 ft | 180 kts | 93° |
| 2026-04-21 07:50 | 25.07357 | 121.43265 | 2007 ft | 162 kts | 91° |
| 2026-04-21 07:50 | 25.07335 | 121.44436 | 2014 ft | 151 kts | 92° |
| 2026-04-21 07:50 | 25.07305 | 121.45603 | 1924 ft | 155 kts | 92° |
| 2026-04-21 07:51 | 25.07268 | 121.46792 | 1697 ft | 153 kts | 92° |
| 2026-04-21 07:51 | 25.07220 | 121.47963 | 1476 ft | 156 kts | 92° |
| 2026-04-21 07:51 | 25.07189 | 121.49188 | 1071 ft | 159 kts | 91° |
| 2026-04-21 07:51 | 25.07147 | 121.50375 | 769 ft | 151 kts | 92° |
| 2026-04-21 07:52 | 25.07102 | 121.51503 | 542 ft | 145 kts | 93° |
| 2026-04-21 07:52 | 25.07064 | 121.52618 | 328 ft | 145 kts | 91° |
| 2026-04-21 07:52 | 25.07022 | 121.53717 | 115 ft | 138 kts | 92° |
| 2026-04-21 07:52 | 25.06983 | 121.54697 | 27 ft | 114 kts | 93° |
| 2026-04-21 07:53 | 25.06956 | 121.55275 | 26 ft | 49 kts | 93° |
| 2026-04-21 07:53 | 25.06912 | 121.55571 | 27 ft | 28 kts | 112° |
| 2026-04-21 07:53 | 25.06782 | 121.55719 | 28 ft | 21 kts | 160° |
| 2026-04-21 07:53 | 25.06652 | 121.55693 | 26 ft | 22 kts | 246° |
| 2026-04-21 07:54 | 25.06616 | 121.55529 | 28 ft | 23 kts | 256° |
| 2026-04-21 07:54 | 25.06578 | 121.55354 | 27 ft | 24 kts | 263° |
| 2026-04-21 07:54 | 25.06574 | 121.55192 | 26 ft | 17 kts | 270° |
| 2026-04-21 07:54 | 25.06553 | 121.55106 | 28 ft | 12 kts | 210° |
| 2026-04-21 07:55 | 25.06523 | 121.55104 | 26 ft | 3 kts | 179° |
| 2026-04-21 07:55 | 25.06497 | 121.55105 | 26 ft | 0 kts | 177° |
| 2026-04-21 07:55 | 25.06489 | 121.55105 | 27 ft | 1 kts | 178° |
| 2026-04-21 07:55 | 25.06488 | 121.55105 | 27 ft | 0 kts | 178° |
| 2026-04-21 07:56 | 25.06487 | 121.55105 | 27 ft | 0 kts | 178° |
| 2026-04-21 08:02 | 25.06470 | 121.55106 | 26 ft | 0 kts | 178° |